sensor_id;sensor_type;location;lat;lon;timestamp;P1;durP1;ratioP1;P2;durP2;ratioP2
18090;SDS011;9172;49.948;9.208;2023-06-22T00:00:10;7.83;;;4.50;;
18090;SDS011;9172;49.948;9.208;2023-06-22T00:02:39;6.33;;;4.70;;
18090;SDS011;9172;49.948;9.208;2023-06-22T00:05:08;6.57;;;4.73;;
18090;SDS011;9172;49.948;9.208;2023-06-22T00:07:39;9.77;;;6.23;;
18090;SDS011;9172;49.948;9.208;2023-06-22T00:10:08;7.67;;;4.73;;
18090;SDS011;9172;49.948;9.208;2023-06-22T00:12:37;9.70;;;5.10;;
18090;SDS011;9172;49.948;9.208;2023-06-22T00:15:06;9.00;;;5.03;;
18090;SDS011;9172;49.948;9.208;2023-06-22T00:17:35;8.03;;;5.37;;
18090;SDS011;9172;49.948;9.208;2023-06-22T00:20:06;10.10;;;6.37;;
18090;SDS011;9172;49.948;9.208;2023-06-22T00:22:37;7.53;;;5.53;;
18090;SDS011;9172;49.948;9.208;2023-06-22T00:25:07;10.77;;;5.70;;
18090;SDS011;9172;49.948;9.208;2023-06-22T00:27:36;9.37;;;4.83;;
18090;SDS011;9172;49.948;9.208;2023-06-22T00:30:06;9.27;;;4.97;;
18090;SDS011;9172;49.948;9.208;2023-06-22T00:32:36;7.00;;;5.10;;
18090;SDS011;9172;49.948;9.208;2023-06-22T00:35:06;7.00;;;4.83;;
18090;SDS011;9172;49.948;9.208;2023-06-22T00:37:36;8.93;;;4.37;;
18090;SDS011;9172;49.948;9.208;2023-06-22T00:40:08;7.27;;;4.63;;
18090;SDS011;9172;49.948;9.208;2023-06-22T00:42:38;6.73;;;4.00;;
18090;SDS011;9172;49.948;9.208;2023-06-22T00:45:07;5.30;;;4.00;;
18090;SDS011;9172;49.948;9.208;2023-06-22T00:47:36;8.93;;;4.63;;
18090;SDS011;9172;49.948;9.208;2023-06-22T00:50:06;8.50;;;4.50;;
18090;SDS011;9172;49.948;9.208;2023-06-22T00:52:38;8.60;;;4.30;;
18090;SDS011;9172;49.948;9.208;2023-06-22T00:55:08;6.17;;;4.50;;
18090;SDS011;9172;49.948;9.208;2023-06-22T00:57:37;6.60;;;4.40;;
18090;SDS011;9172;49.948;9.208;2023-06-22T01:00:08;7.27;;;4.63;;
18090;SDS011;9172;49.948;9.208;2023-06-22T01:02:40;7.13;;;4.83;;
18090;SDS011;9172;49.948;9.208;2023-06-22T01:05:11;7.47;;;4.93;;
18090;SDS011;9172;49.948;9.208;2023-06-22T01:07:42;11.37;;;4.87;;
18090;SDS011;9172;49.948;9.208;2023-06-22T01:10:14;8.07;;;5.00;;
18090;SDS011;9172;49.948;9.208;2023-06-22T01:12:46;6.37;;;4.53;;
18090;SDS011;9172;49.948;9.208;2023-06-22T01:15:18;9.17;;;5.10;;
18090;SDS011;9172;49.948;9.208;2023-06-22T01:17:50;8.40;;;5.07;;
18090;SDS011;9172;49.948;9.208;2023-06-22T01:20:22;7.47;;;4.90;;
18090;SDS011;9172;49.948;9.208;2023-06-22T01:22:57;7.27;;;4.70;;
18090;SDS011;9172;49.948;9.208;2023-06-22T01:25:33;6.30;;;4.47;;
18090;SDS011;9172;49.948;9.208;2023-06-22T01:28:05;6.63;;;4.47;;
18090;SDS011;9172;49.948;9.208;2023-06-22T01:30:39;6.90;;;5.03;;
18090;SDS011;9172;49.948;9.208;2023-06-22T01:33:08;9.77;;;5.07;;
18090;SDS011;9172;49.948;9.208;2023-06-22T01:35:39;8.23;;;6.03;;
18090;SDS011;9172;49.948;9.208;2023-06-22T01:38:08;8.77;;;6.00;;
18090;SDS011;9172;49.948;9.208;2023-06-22T01:40:38;12.10;;;6.30;;
18090;SDS011;9172;49.948;9.208;2023-06-22T01:43:07;9.97;;;6.83;;
18090;SDS011;9172;49.948;9.208;2023-06-22T01:45:37;9.50;;;6.60;;
18090;SDS011;9172;49.948;9.208;2023-06-22T01:48:06;9.20;;;7.00;;
18090;SDS011;9172;49.948;9.208;2023-06-22T01:50:35;11.03;;;7.33;;
18090;SDS011;9172;49.948;9.208;2023-06-22T01:53:04;12.97;;;7.20;;
18090;SDS011;9172;49.948;9.208;2023-06-22T01:55:33;9.03;;;6.30;;
18090;SDS011;9172;49.948;9.208;2023-06-22T01:58:02;10.90;;;6.87;;
18090;SDS011;9172;49.948;9.208;2023-06-22T02:00:32;10.37;;;7.20;;
18090;SDS011;9172;49.948;9.208;2023-06-22T02:03:05;11.67;;;6.90;;
18090;SDS011;9172;49.948;9.208;2023-06-22T02:05:35;10.80;;;7.23;;
18090;SDS011;9172;49.948;9.208;2023-06-22T02:08:09;11.33;;;7.53;;
18090;SDS011;9172;49.948;9.208;2023-06-22T02:10:42;9.50;;;6.00;;
18090;SDS011;9172;49.948;9.208;2023-06-22T02:13:14;11.03;;;7.20;;
18090;SDS011;9172;49.948;9.208;2023-06-22T02:15:43;12.97;;;6.37;;
18090;SDS011;9172;49.948;9.208;2023-06-22T02:18:13;11.27;;;7.20;;
18090;SDS011;9172;49.948;9.208;2023-06-22T02:20:41;12.27;;;6.60;;
18090;SDS011;9172;49.948;9.208;2023-06-22T02:23:11;17.13;;;7.07;;
18090;SDS011;9172;49.948;9.208;2023-06-22T02:25:40;9.87;;;6.20;;
18090;SDS011;9172;49.948;9.208;2023-06-22T02:28:10;9.67;;;6.43;;
18090;SDS011;9172;49.948;9.208;2023-06-22T02:30:40;12.00;;;7.00;;
18090;SDS011;9172;49.948;9.208;2023-06-22T02:33:09;10.93;;;6.53;;
18090;SDS011;9172;49.948;9.208;2023-06-22T02:35:39;10.27;;;6.83;;
18090;SDS011;9172;49.948;9.208;2023-06-22T02:38:10;9.10;;;6.57;;
18090;SDS011;9172;49.948;9.208;2023-06-22T02:40:38;9.27;;;6.40;;
18090;SDS011;9172;49.948;9.208;2023-06-22T02:43:07;11.43;;;6.57;;
18090;SDS011;9172;49.948;9.208;2023-06-22T02:45:37;9.70;;;6.70;;
18090;SDS011;9172;49.948;9.208;2023-06-22T02:48:06;12.13;;;5.87;;
18090;SDS011;9172;49.948;9.208;2023-06-22T02:50:35;9.90;;;6.70;;
18090;SDS011;9172;49.948;9.208;2023-06-22T02:53:04;8.83;;;5.83;;
18090;SDS011;9172;49.948;9.208;2023-06-22T02:55:32;8.70;;;5.53;;
18090;SDS011;9172;49.948;9.208;2023-06-22T02:58:01;8.00;;;5.30;;
18090;SDS011;9172;49.948;9.208;2023-06-22T03:00:31;10.40;;;6.03;;
18090;SDS011;9172;49.948;9.208;2023-06-22T03:03:00;9.77;;;6.20;;
18090;SDS011;9172;49.948;9.208;2023-06-22T03:05:29;10.50;;;5.93;;
18090;SDS011;9172;49.948;9.208;2023-06-22T03:07:59;9.30;;;5.40;;
18090;SDS011;9172;49.948;9.208;2023-06-22T03:10:27;9.67;;;5.43;;
18090;SDS011;9172;49.948;9.208;2023-06-22T03:12:56;9.67;;;5.93;;
18090;SDS011;9172;49.948;9.208;2023-06-22T03:15:25;7.93;;;5.20;;
18090;SDS011;9172;49.948;9.208;2023-06-22T03:17:57;7.90;;;5.30;;
18090;SDS011;9172;49.948;9.208;2023-06-22T03:20:26;8.67;;;6.20;;
18090;SDS011;9172;49.948;9.208;2023-06-22T03:22:56;8.03;;;6.10;;
18090;SDS011;9172;49.948;9.208;2023-06-22T03:25:25;8.60;;;6.50;;
18090;SDS011;9172;49.948;9.208;2023-06-22T03:27:54;8.47;;;5.40;;
18090;SDS011;9172;49.948;9.208;2023-06-22T03:30:22;9.23;;;5.23;;
18090;SDS011;9172;49.948;9.208;2023-06-22T03:33:03;10.17;;;5.93;;
18090;SDS011;9172;49.948;9.208;2023-06-22T03:35:32;10.23;;;5.67;;
18090;SDS011;9172;49.948;9.208;2023-06-22T03:38:00;8.60;;;6.07;;
18090;SDS011;9172;49.948;9.208;2023-06-22T03:40:29;9.57;;;4.93;;
18090;SDS011;9172;49.948;9.208;2023-06-22T03:42:58;9.03;;;5.03;;
18090;SDS011;9172;49.948;9.208;2023-06-22T03:45:26;7.70;;;5.60;;
18090;SDS011;9172;49.948;9.208;2023-06-22T03:47:57;9.53;;;5.77;;
18090;SDS011;9172;49.948;9.208;2023-06-22T03:50:25;8.70;;;5.97;;
18090;SDS011;9172;49.948;9.208;2023-06-22T03:52:54;9.33;;;5.60;;
18090;SDS011;9172;49.948;9.208;2023-06-22T03:55:22;7.33;;;5.07;;
18090;SDS011;9172;49.948;9.208;2023-06-22T03:57:51;7.60;;;5.70;;
18090;SDS011;9172;49.948;9.208;2023-06-22T04:00:22;8.43;;;5.53;;
18090;SDS011;9172;49.948;9.208;2023-06-22T04:02:52;10.17;;;5.10;;
18090;SDS011;9172;49.948;9.208;2023-06-22T04:05:21;7.60;;;5.33;;
18090;SDS011;9172;49.948;9.208;2023-06-22T04:07:50;9.93;;;6.40;;
18090;SDS011;9172;49.948;9.208;2023-06-22T04:10:20;9.83;;;6.03;;
18090;SDS011;9172;49.948;9.208;2023-06-22T04:12:48;8.73;;;5.40;;
18090;SDS011;9172;49.948;9.208;2023-06-22T04:15:17;7.87;;;5.23;;
18090;SDS011;9172;49.948;9.208;2023-06-22T04:17:46;8.13;;;5.53;;
18090;SDS011;9172;49.948;9.208;2023-06-22T04:20:15;7.80;;;5.97;;
18090;SDS011;9172;49.948;9.208;2023-06-22T04:22:43;8.50;;;4.87;;
18090;SDS011;9172;49.948;9.208;2023-06-22T04:25:12;6.87;;;4.90;;
18090;SDS011;9172;49.948;9.208;2023-06-22T04:27:42;7.70;;;5.67;;
18090;SDS011;9172;49.948;9.208;2023-06-22T04:30:11;7.73;;;5.17;;
18090;SDS011;9172;49.948;9.208;2023-06-22T04:32:42;8.77;;;5.67;;
18090;SDS011;9172;49.948;9.208;2023-06-22T04:35:11;8.90;;;5.60;;
18090;SDS011;9172;49.948;9.208;2023-06-22T04:37:43;9.17;;;5.50;;
18090;SDS011;9172;49.948;9.208;2023-06-22T04:40:12;9.13;;;5.90;;
18090;SDS011;9172;49.948;9.208;2023-06-22T04:42:40;7.47;;;5.40;;
18090;SDS011;9172;49.948;9.208;2023-06-22T04:45:12;10.67;;;6.83;;
18090;SDS011;9172;49.948;9.208;2023-06-22T04:47:43;9.37;;;6.33;;
18090;SDS011;9172;49.948;9.208;2023-06-22T04:50:12;10.23;;;5.90;;
18090;SDS011;9172;49.948;9.208;2023-06-22T04:52:41;7.60;;;5.27;;
18090;SDS011;9172;49.948;9.208;2023-06-22T04:55:10;7.77;;;5.77;;
18090;SDS011;9172;49.948;9.208;2023-06-22T04:57:39;8.87;;;5.57;;
18090;SDS011;9172;49.948;9.208;2023-06-22T05:00:11;10.73;;;5.63;;
18090;SDS011;9172;49.948;9.208;2023-06-22T05:02:43;11.97;;;6.93;;
18090;SDS011;9172;49.948;9.208;2023-06-22T05:05:13;9.73;;;6.13;;
18090;SDS011;9172;49.948;9.208;2023-06-22T05:07:43;8.33;;;5.93;;
18090;SDS011;9172;49.948;9.208;2023-06-22T05:10:14;8.40;;;6.27;;
18090;SDS011;9172;49.948;9.208;2023-06-22T05:12:42;10.13;;;6.07;;
18090;SDS011;9172;49.948;9.208;2023-06-22T05:15:11;8.90;;;5.93;;
18090;SDS011;9172;49.948;9.208;2023-06-22T05:17:40;7.63;;;5.53;;
18090;SDS011;9172;49.948;9.208;2023-06-22T05:20:11;8.73;;;6.23;;
18090;SDS011;9172;49.948;9.208;2023-06-22T05:22:42;10.00;;;6.30;;
18090;SDS011;9172;49.948;9.208;2023-06-22T05:25:11;7.03;;;5.43;;
18090;SDS011;9172;49.948;9.208;2023-06-22T05:27:44;9.97;;;6.00;;
18090;SDS011;9172;49.948;9.208;2023-06-22T05:30:12;8.27;;;5.40;;
18090;SDS011;9172;49.948;9.208;2023-06-22T05:32:43;9.07;;;6.07;;
18090;SDS011;9172;49.948;9.208;2023-06-22T05:35:12;13.23;;;6.83;;
18090;SDS011;9172;49.948;9.208;2023-06-22T05:37:42;10.70;;;6.40;;
18090;SDS011;9172;49.948;9.208;2023-06-22T05:40:12;9.97;;;6.87;;
18090;SDS011;9172;49.948;9.208;2023-06-22T05:42:42;10.90;;;6.70;;
18090;SDS011;9172;49.948;9.208;2023-06-22T05:45:11;8.83;;;6.60;;
18090;SDS011;9172;49.948;9.208;2023-06-22T05:47:40;8.10;;;5.83;;
18090;SDS011;9172;49.948;9.208;2023-06-22T05:50:09;10.93;;;6.47;;
18090;SDS011;9172;49.948;9.208;2023-06-22T05:52:38;9.57;;;6.50;;
18090;SDS011;9172;49.948;9.208;2023-06-22T05:55:07;7.40;;;5.77;;
18090;SDS011;9172;49.948;9.208;2023-06-22T05:57:45;14.83;;;6.47;;
18090;SDS011;9172;49.948;9.208;2023-06-22T06:00:15;10.53;;;6.23;;
18090;SDS011;9172;49.948;9.208;2023-06-22T06:02:45;10.10;;;5.70;;
18090;SDS011;9172;49.948;9.208;2023-06-22T06:05:15;8.07;;;5.43;;
18090;SDS011;9172;49.948;9.208;2023-06-22T06:07:44;13.17;;;6.03;;
18090;SDS011;9172;49.948;9.208;2023-06-22T06:10:14;10.47;;;6.40;;
18090;SDS011;9172;49.948;9.208;2023-06-22T06:12:43;9.40;;;6.00;;
18090;SDS011;9172;49.948;9.208;2023-06-22T06:15:13;11.80;;;6.53;;
18090;SDS011;9172;49.948;9.208;2023-06-22T06:17:45;11.20;;;6.50;;
18090;SDS011;9172;49.948;9.208;2023-06-22T06:20:15;8.50;;;6.27;;
18090;SDS011;9172;49.948;9.208;2023-06-22T06:22:45;12.27;;;6.23;;
18090;SDS011;9172;49.948;9.208;2023-06-22T06:25:14;10.80;;;6.30;;
18090;SDS011;9172;49.948;9.208;2023-06-22T06:27:51;9.73;;;6.60;;
18090;SDS011;9172;49.948;9.208;2023-06-22T06:30:22;8.45;;;5.97;;
18090;SDS011;9172;49.948;9.208;2023-06-22T06:32:51;10.68;;;6.53;;
18090;SDS011;9172;49.948;9.208;2023-06-22T06:35:20;10.43;;;6.70;;
18090;SDS011;9172;49.948;9.208;2023-06-22T06:37:49;8.53;;;6.33;;
18090;SDS011;9172;49.948;9.208;2023-06-22T06:40:18;10.23;;;6.47;;
18090;SDS011;9172;49.948;9.208;2023-06-22T06:42:48;9.80;;;7.22;;
18090;SDS011;9172;49.948;9.208;2023-06-22T06:45:19;10.05;;;6.60;;
18090;SDS011;9172;49.948;9.208;2023-06-22T06:47:49;8.85;;;5.70;;
18090;SDS011;9172;49.948;9.208;2023-06-22T06:50:19;7.45;;;5.47;;
18090;SDS011;9172;49.948;9.208;2023-06-22T06:52:48;8.73;;;6.10;;
18090;SDS011;9172;49.948;9.208;2023-06-22T06:55:18;10.53;;;5.92;;
18090;SDS011;9172;49.948;9.208;2023-06-22T06:57:49;7.53;;;5.90;;
18090;SDS011;9172;49.948;9.208;2023-06-22T07:00:19;7.92;;;5.83;;
18090;SDS011;9172;49.948;9.208;2023-06-22T07:02:48;9.10;;;6.53;;
18090;SDS011;9172;49.948;9.208;2023-06-22T07:05:17;9.55;;;6.35;;
18090;SDS011;9172;49.948;9.208;2023-06-22T07:07:46;11.40;;;5.95;;
18090;SDS011;9172;49.948;9.208;2023-06-22T07:10:15;12.60;;;6.47;;
18090;SDS011;9172;49.948;9.208;2023-06-22T07:12:43;9.58;;;6.42;;
18090;SDS011;9172;49.948;9.208;2023-06-22T07:15:13;9.08;;;6.10;;
18090;SDS011;9172;49.948;9.208;2023-06-22T07:17:42;9.88;;;6.17;;
18090;SDS011;9172;49.948;9.208;2023-06-22T07:20:11;11.75;;;5.92;;
18090;SDS011;9172;49.948;9.208;2023-06-22T07:22:40;10.32;;;6.12;;
18090;SDS011;9172;49.948;9.208;2023-06-22T07:25:12;8.05;;;5.28;;
18090;SDS011;9172;49.948;9.208;2023-06-22T07:27:45;8.13;;;5.70;;
18090;SDS011;9172;49.948;9.208;2023-06-22T07:30:17;8.28;;;5.85;;
18090;SDS011;9172;49.948;9.208;2023-06-22T07:32:47;9.03;;;5.72;;
18090;SDS011;9172;49.948;9.208;2023-06-22T07:35:16;12.43;;;5.60;;
18090;SDS011;9172;49.948;9.208;2023-06-22T07:37:54;10.93;;;5.92;;
18090;SDS011;9172;49.948;9.208;2023-06-22T07:40:24;8.60;;;5.80;;
18090;SDS011;9172;49.948;9.208;2023-06-22T07:42:54;10.38;;;6.35;;
18090;SDS011;9172;49.948;9.208;2023-06-22T07:45:23;8.73;;;5.90;;
18090;SDS011;9172;49.948;9.208;2023-06-22T07:47:51;7.75;;;5.53;;
18090;SDS011;9172;49.948;9.208;2023-06-22T07:50:21;10.60;;;5.15;;
18090;SDS011;9172;49.948;9.208;2023-06-22T07:52:52;7.75;;;5.50;;
18090;SDS011;9172;49.948;9.208;2023-06-22T07:55:21;8.23;;;5.20;;
18090;SDS011;9172;49.948;9.208;2023-06-22T07:57:49;6.78;;;5.08;;
18090;SDS011;9172;49.948;9.208;2023-06-22T08:00:18;6.75;;;5.03;;
18090;SDS011;9172;49.948;9.208;2023-06-22T08:02:47;7.87;;;5.50;;
18090;SDS011;9172;49.948;9.208;2023-06-22T08:05:16;7.00;;;4.83;;
18090;SDS011;9172;49.948;9.208;2023-06-22T08:07:45;11.08;;;6.05;;
18090;SDS011;9172;49.948;9.208;2023-06-22T08:10:13;6.87;;;5.03;;
18090;SDS011;9172;49.948;9.208;2023-06-22T08:12:42;8.20;;;4.58;;
18090;SDS011;9172;49.948;9.208;2023-06-22T08:15:11;7.05;;;4.70;;
18090;SDS011;9172;49.948;9.208;2023-06-22T08:17:40;7.15;;;5.45;;
18090;SDS011;9172;49.948;9.208;2023-06-22T08:20:10;8.53;;;5.33;;
18090;SDS011;9172;49.948;9.208;2023-06-22T08:22:39;9.15;;;5.53;;
18090;SDS011;9172;49.948;9.208;2023-06-22T08:25:08;8.53;;;5.55;;
18090;SDS011;9172;49.948;9.208;2023-06-22T08:27:39;9.08;;;6.08;;
18090;SDS011;9172;49.948;9.208;2023-06-22T08:30:09;9.25;;;5.20;;
18090;SDS011;9172;49.948;9.208;2023-06-22T08:32:39;13.68;;;5.53;;
18090;SDS011;9172;49.948;9.208;2023-06-22T08:35:08;8.08;;;5.45;;
18090;SDS011;9172;49.948;9.208;2023-06-22T08:37:37;8.78;;;5.67;;
18090;SDS011;9172;49.948;9.208;2023-06-22T08:40:07;13.25;;;5.25;;
18090;SDS011;9172;49.948;9.208;2023-06-22T08:42:37;9.58;;;5.50;;
18090;SDS011;9172;49.948;9.208;2023-06-22T08:45:08;8.40;;;5.37;;
18090;SDS011;9172;49.948;9.208;2023-06-22T08:47:38;10.43;;;5.85;;
18090;SDS011;9172;49.948;9.208;2023-06-22T08:50:07;7.05;;;5.40;;
18090;SDS011;9172;49.948;9.208;2023-06-22T08:52:37;7.80;;;5.60;;
18090;SDS011;9172;49.948;9.208;2023-06-22T08:55:08;9.75;;;5.87;;
18090;SDS011;9172;49.948;9.208;2023-06-22T08:57:37;7.25;;;5.37;;
18090;SDS011;9172;49.948;9.208;2023-06-22T09:00:07;11.97;;;6.55;;
18090;SDS011;9172;49.948;9.208;2023-06-22T09:02:42;11.63;;;6.30;;
18090;SDS011;9172;49.948;9.208;2023-06-22T09:05:11;8.28;;;5.53;;
18090;SDS011;9172;49.948;9.208;2023-06-22T09:07:40;8.58;;;5.83;;
18090;SDS011;9172;49.948;9.208;2023-06-22T09:10:10;8.43;;;5.53;;
18090;SDS011;9172;49.948;9.208;2023-06-22T09:12:47;9.60;;;5.20;;
18090;SDS011;9172;49.948;9.208;2023-06-22T09:15:18;7.53;;;5.83;;
18090;SDS011;9172;49.948;9.208;2023-06-22T09:17:47;6.70;;;5.22;;
18090;SDS011;9172;49.948;9.208;2023-06-22T09:20:17;8.60;;;5.75;;
18090;SDS011;9172;49.948;9.208;2023-06-22T09:22:46;8.20;;;5.47;;
18090;SDS011;9172;49.948;9.208;2023-06-22T09:25:15;8.35;;;5.15;;
18090;SDS011;9172;49.948;9.208;2023-06-22T09:27:46;10.93;;;5.92;;
18090;SDS011;9172;49.948;9.208;2023-06-22T09:30:15;6.95;;;5.60;;
18090;SDS011;9172;49.948;9.208;2023-06-22T09:32:44;11.25;;;5.42;;
18090;SDS011;9172;49.948;9.208;2023-06-22T09:35:13;9.40;;;6.30;;
18090;SDS011;9172;49.948;9.208;2023-06-22T09:37:43;7.20;;;5.50;;
18090;SDS011;9172;49.948;9.208;2023-06-22T09:40:12;7.15;;;5.67;;
18090;SDS011;9172;49.948;9.208;2023-06-22T09:42:43;8.83;;;5.75;;
18090;SDS011;9172;49.948;9.208;2023-06-22T09:45:11;7.83;;;5.25;;
18090;SDS011;9172;49.948;9.208;2023-06-22T09:47:42;10.43;;;5.00;;
18090;SDS011;9172;49.948;9.208;2023-06-22T09:50:12;7.05;;;5.40;;
18090;SDS011;9172;49.948;9.208;2023-06-22T09:52:40;6.37;;;5.10;;
18090;SDS011;9172;49.948;9.208;2023-06-22T09:55:11;8.40;;;5.12;;
18090;SDS011;9172;49.948;9.208;2023-06-22T09:57:41;8.13;;;5.15;;
18090;SDS011;9172;49.948;9.208;2023-06-22T10:00:11;10.35;;;5.40;;
18090;SDS011;9172;49.948;9.208;2023-06-22T10:02:44;8.40;;;5.80;;
18090;SDS011;9172;49.948;9.208;2023-06-22T10:05:14;8.58;;;5.25;;
18090;SDS011;9172;49.948;9.208;2023-06-22T10:07:44;6.20;;;5.10;;
18090;SDS011;9172;49.948;9.208;2023-06-22T10:10:12;6.70;;;4.95;;
18090;SDS011;9172;49.948;9.208;2023-06-22T10:12:42;7.78;;;5.12;;
18090;SDS011;9172;49.948;9.208;2023-06-22T10:15:12;9.43;;;5.05;;
18090;SDS011;9172;49.948;9.208;2023-06-22T10:17:40;7.47;;;5.00;;
18090;SDS011;9172;49.948;9.208;2023-06-22T10:20:09;6.42;;;4.70;;
18090;SDS011;9172;49.948;9.208;2023-06-22T10:22:39;9.48;;;5.72;;
18090;SDS011;9172;49.948;9.208;2023-06-22T10:25:09;9.55;;;4.72;;
18090;SDS011;9172;49.948;9.208;2023-06-22T10:27:38;7.95;;;5.15;;
18090;SDS011;9172;49.948;9.208;2023-06-22T10:30:08;9.05;;;4.55;;
18090;SDS011;9172;49.948;9.208;2023-06-22T10:32:39;11.63;;;4.87;;
18090;SDS011;9172;49.948;9.208;2023-06-22T10:35:09;7.80;;;5.55;;
18090;SDS011;9172;49.948;9.208;2023-06-22T10:37:40;9.40;;;5.42;;
18090;SDS011;9172;49.948;9.208;2023-06-22T10:40:10;8.03;;;5.20;;
18090;SDS011;9172;49.948;9.208;2023-06-22T10:42:41;8.10;;;5.67;;
18090;SDS011;9172;49.948;9.208;2023-06-22T10:45:10;11.40;;;5.35;;
18090;SDS011;9172;49.948;9.208;2023-06-22T10:47:39;8.18;;;5.08;;
18090;SDS011;9172;49.948;9.208;2023-06-22T10:50:09;8.90;;;5.05;;
18090;SDS011;9172;49.948;9.208;2023-06-22T10:52:38;10.90;;;5.55;;
18090;SDS011;9172;49.948;9.208;2023-06-22T10:55:08;11.55;;;4.87;;
18090;SDS011;9172;49.948;9.208;2023-06-22T10:57:37;9.23;;;4.67;;
18090;SDS011;9172;49.948;9.208;2023-06-22T11:00:10;13.65;;;5.20;;
18090;SDS011;9172;49.948;9.208;2023-06-22T11:02:41;13.70;;;5.58;;
18090;SDS011;9172;49.948;9.208;2023-06-22T11:05:11;12.70;;;5.03;;
18090;SDS011;9172;49.948;9.208;2023-06-22T11:07:41;8.10;;;5.37;;
18090;SDS011;9172;49.948;9.208;2023-06-22T11:10:10;6.92;;;5.37;;
18090;SDS011;9172;49.948;9.208;2023-06-22T11:12:39;9.10;;;5.40;;
18090;SDS011;9172;49.948;9.208;2023-06-22T11:15:09;8.60;;;5.72;;
18090;SDS011;9172;49.948;9.208;2023-06-22T11:17:38;8.35;;;5.40;;
18090;SDS011;9172;49.948;9.208;2023-06-22T11:20:08;11.83;;;5.78;;
18090;SDS011;9172;49.948;9.208;2023-06-22T11:22:37;12.10;;;5.55;;
18090;SDS011;9172;49.948;9.208;2023-06-22T11:25:06;9.48;;;5.28;;
18090;SDS011;9172;49.948;9.208;2023-06-22T11:27:37;7.62;;;5.40;;
18090;SDS011;9172;49.948;9.208;2023-06-22T11:30:07;8.98;;;5.58;;
18090;SDS011;9172;49.948;9.208;2023-06-22T11:32:36;11.03;;;5.78;;
18090;SDS011;9172;49.948;9.208;2023-06-22T11:35:06;12.25;;;5.17;;
18090;SDS011;9172;49.948;9.208;2023-06-22T11:37:35;9.38;;;5.50;;
18090;SDS011;9172;49.948;9.208;2023-06-22T11:40:06;11.43;;;5.50;;
18090;SDS011;9172;49.948;9.208;2023-06-22T11:42:36;10.78;;;6.00;;
18090;SDS011;9172;49.948;9.208;2023-06-22T11:45:06;12.50;;;5.42;;
18090;SDS011;9172;49.948;9.208;2023-06-22T11:47:35;11.28;;;5.80;;
18090;SDS011;9172;49.948;9.208;2023-06-22T11:50:06;13.50;;;6.20;;
18090;SDS011;9172;49.948;9.208;2023-06-22T11:52:39;9.65;;;5.33;;
18090;SDS011;9172;49.948;9.208;2023-06-22T11:55:08;13.50;;;6.28;;
18090;SDS011;9172;49.948;9.208;2023-06-22T11:57:38;13.80;;;5.60;;
18090;SDS011;9172;49.948;9.208;2023-06-22T12:00:11;12.50;;;6.62;;
18090;SDS011;9172;49.948;9.208;2023-06-22T12:02:43;11.85;;;5.58;;
18090;SDS011;9172;49.948;9.208;2023-06-22T12:05:12;9.35;;;5.15;;
18090;SDS011;9172;49.948;9.208;2023-06-22T12:07:42;10.40;;;5.75;;
18090;SDS011;9172;49.948;9.208;2023-06-22T12:10:10;16.45;;;6.03;;
18090;SDS011;9172;49.948;9.208;2023-06-22T12:12:40;6.72;;;4.87;;
18090;SDS011;9172;49.948;9.208;2023-06-22T12:15:10;10.48;;;5.75;;
18090;SDS011;9172;49.948;9.208;2023-06-22T12:17:38;12.73;;;5.60;;
18090;SDS011;9172;49.948;9.208;2023-06-22T12:20:08;15.83;;;6.10;;
18090;SDS011;9172;49.948;9.208;2023-06-22T12:22:38;7.75;;;4.75;;
18090;SDS011;9172;49.948;9.208;2023-06-22T12:25:07;10.53;;;5.12;;
18090;SDS011;9172;49.948;9.208;2023-06-22T12:27:37;8.95;;;5.20;;
18090;SDS011;9172;49.948;9.208;2023-06-22T12:30:06;10.68;;;5.17;;
18090;SDS011;9172;49.948;9.208;2023-06-22T12:32:37;10.60;;;5.20;;
18090;SDS011;9172;49.948;9.208;2023-06-22T12:35:07;8.00;;;5.10;;
18090;SDS011;9172;49.948;9.208;2023-06-22T12:37:37;7.47;;;4.85;;
18090;SDS011;9172;49.948;9.208;2023-06-22T12:40:07;11.53;;;5.20;;
18090;SDS011;9172;49.948;9.208;2023-06-22T12:42:37;11.53;;;4.62;;
18090;SDS011;9172;49.948;9.208;2023-06-22T12:45:08;9.13;;;4.83;;
18090;SDS011;9172;49.948;9.208;2023-06-22T12:47:37;7.53;;;4.85;;
18090;SDS011;9172;49.948;9.208;2023-06-22T12:50:08;12.47;;;4.62;;
18090;SDS011;9172;49.948;9.208;2023-06-22T12:52:37;11.03;;;4.60;;
18090;SDS011;9172;49.948;9.208;2023-06-22T12:55:07;12.15;;;4.75;;
18090;SDS011;9172;49.948;9.208;2023-06-22T12:57:36;7.72;;;4.90;;
18090;SDS011;9172;49.948;9.208;2023-06-22T13:00:14;9.33;;;4.22;;
18090;SDS011;9172;49.948;9.208;2023-06-22T13:02:44;7.80;;;4.15;;
18090;SDS011;9172;49.948;9.208;2023-06-22T13:05:13;8.58;;;4.85;;
18090;SDS011;9172;49.948;9.208;2023-06-22T13:07:41;10.32;;;4.45;;
18090;SDS011;9172;49.948;9.208;2023-06-22T13:10:10;8.80;;;4.78;;
18090;SDS011;9172;49.948;9.208;2023-06-22T13:12:40;7.50;;;4.08;;
18090;SDS011;9172;49.948;9.208;2023-06-22T13:15:09;11.53;;;4.20;;
18090;SDS011;9172;49.948;9.208;2023-06-22T13:17:39;7.65;;;4.33;;
18090;SDS011;9172;49.948;9.208;2023-06-22T13:20:09;8.73;;;4.42;;
18090;SDS011;9172;49.948;9.208;2023-06-22T13:22:38;7.87;;;4.00;;
18090;SDS011;9172;49.948;9.208;2023-06-22T13:25:09;11.53;;;4.10;;
18090;SDS011;9172;49.948;9.208;2023-06-22T13:27:39;11.78;;;4.58;;
18090;SDS011;9172;49.948;9.208;2023-06-22T13:30:08;8.30;;;4.33;;
18090;SDS011;9172;49.948;9.208;2023-06-22T13:32:39;6.83;;;4.40;;
18090;SDS011;9172;49.948;9.208;2023-06-22T13:35:09;9.18;;;4.20;;
18090;SDS011;9172;49.948;9.208;2023-06-22T13:37:37;9.28;;;4.35;;
18090;SDS011;9172;49.948;9.208;2023-06-22T13:40:07;12.30;;;4.33;;
18090;SDS011;9172;49.948;9.208;2023-06-22T13:42:37;9.35;;;4.10;;
18090;SDS011;9172;49.948;9.208;2023-06-22T13:45:06;7.95;;;3.47;;
18090;SDS011;9172;49.948;9.208;2023-06-22T13:47:36;8.85;;;4.00;;
18090;SDS011;9172;49.948;9.208;2023-06-22T13:50:06;8.38;;;4.22;;
18090;SDS011;9172;49.948;9.208;2023-06-22T13:52:35;7.37;;;4.00;;
18090;SDS011;9172;49.948;9.208;2023-06-22T13:55:04;8.80;;;3.92;;
18090;SDS011;9172;49.948;9.208;2023-06-22T13:57:33;11.93;;;4.17;;
18090;SDS011;9172;49.948;9.208;2023-06-22T14:00:13;9.73;;;4.75;;
18090;SDS011;9172;49.948;9.208;2023-06-22T14:02:43;11.05;;;4.10;;
18090;SDS011;9172;49.948;9.208;2023-06-22T14:05:12;10.60;;;4.72;;
18090;SDS011;9172;49.948;9.208;2023-06-22T14:07:42;9.90;;;3.90;;
18090;SDS011;9172;49.948;9.208;2023-06-22T14:10:12;9.28;;;4.45;;
18090;SDS011;9172;49.948;9.208;2023-06-22T14:12:41;9.00;;;3.83;;
18090;SDS011;9172;49.948;9.208;2023-06-22T14:15:09;12.43;;;4.12;;
18090;SDS011;9172;49.948;9.208;2023-06-22T14:17:39;12.30;;;5.03;;
18090;SDS011;9172;49.948;9.208;2023-06-22T14:20:08;13.30;;;4.75;;
18090;SDS011;9172;49.948;9.208;2023-06-22T14:22:38;14.07;;;4.78;;
18090;SDS011;9172;49.948;9.208;2023-06-22T14:25:07;9.90;;;4.87;;
18090;SDS011;9172;49.948;9.208;2023-06-22T14:27:36;12.80;;;4.10;;
18090;SDS011;9172;49.948;9.208;2023-06-22T14:30:07;11.28;;;4.47;;
18090;SDS011;9172;49.948;9.208;2023-06-22T14:32:36;8.85;;;3.85;;
18090;SDS011;9172;49.948;9.208;2023-06-22T14:35:05;8.85;;;3.70;;
18090;SDS011;9172;49.948;9.208;2023-06-22T14:37:34;10.00;;;3.87;;
18090;SDS011;9172;49.948;9.208;2023-06-22T14:40:03;8.03;;;3.72;;
18090;SDS011;9172;49.948;9.208;2023-06-22T14:42:33;10.08;;;4.12;;
18090;SDS011;9172;49.948;9.208;2023-06-22T14:45:01;7.35;;;4.17;;
18090;SDS011;9172;49.948;9.208;2023-06-22T14:47:32;11.85;;;4.62;;
18090;SDS011;9172;49.948;9.208;2023-06-22T14:50:01;9.73;;;4.33;;
18090;SDS011;9172;49.948;9.208;2023-06-22T14:52:31;7.83;;;3.72;;
18090;SDS011;9172;49.948;9.208;2023-06-22T14:55:00;10.30;;;3.75;;
18090;SDS011;9172;49.948;9.208;2023-06-22T14:57:29;9.80;;;3.80;;
18090;SDS011;9172;49.948;9.208;2023-06-22T14:59:58;14.70;;;4.50;;
18090;SDS011;9172;49.948;9.208;2023-06-22T15:02:28;16.32;;;3.95;;
18090;SDS011;9172;49.948;9.208;2023-06-22T15:04:58;9.75;;;4.33;;
18090;SDS011;9172;49.948;9.208;2023-06-22T15:07:27;11.48;;;4.70;;
18090;SDS011;9172;49.948;9.208;2023-06-22T15:09:56;9.70;;;4.22;;
18090;SDS011;9172;49.948;9.208;2023-06-22T15:12:25;10.58;;;3.72;;